createdAt,value
2023-04-08T00:01:11.944Z,6.55
2023-04-08T00:03:40.982Z,6.53
2023-04-08T00:06:10.175Z,6.50
2023-04-08T00:08:36.667Z,6.51
2023-04-08T00:11:03.211Z,6.59
2023-04-08T00:13:32.016Z,6.65
2023-04-08T00:16:01.189Z,6.64
2023-04-08T00:18:27.838Z,6.63
2023-04-08T00:20:57.149Z,6.68
2023-04-08T00:23:23.836Z,6.66
2023-04-08T00:25:51.377Z,6.62
2023-04-08T00:28:18.304Z,6.56
2023-04-08T00:30:44.792Z,6.47
2023-04-08T00:33:11.380Z,6.43
2023-04-08T00:35:40.306Z,6.37
2023-04-08T00:38:08.430Z,6.36
2023-04-08T00:40:35.571Z,6.27
2023-04-08T00:43:02.054Z,6.17
2023-04-08T00:45:28.532Z,6.10
2023-04-08T00:47:55.175Z,6.09
2023-04-08T00:50:26.717Z,6.06
2023-04-08T00:52:58.174Z,6.08
2023-04-08T00:55:24.662Z,6.01
2023-04-08T00:57:53.540Z,5.94
2023-04-08T01:00:20.365Z,5.83
2023-04-08T01:03:05.919Z,5.82
2023-04-08T01:05:46.133Z,5.80
2023-04-08T01:08:13.982Z,5.77
2023-04-08T01:10:51.006Z,5.80
2023-04-08T01:13:24.412Z,5.88
2023-04-08T01:15:51.191Z,5.90
2023-04-08T01:18:22.364Z,5.88
2023-04-08T01:20:51.349Z,5.90
2023-04-08T01:23:41.182Z,5.94
2023-04-08T01:26:07.759Z,5.98
2023-04-08T01:28:36.057Z,5.96
2023-04-08T01:31:03.294Z,5.95
2023-04-08T01:33:31.549Z,5.93
2023-04-08T01:36:01.427Z,5.93
2023-04-08T01:38:29.223Z,5.92
2023-04-08T01:40:58.332Z,5.92
2023-04-08T01:43:28.552Z,5.99
2023-04-08T01:45:58.463Z,6.00
2023-04-08T01:48:25.978Z,5.88
2023-04-08T01:50:55.856Z,5.90
2023-04-08T01:53:25.264Z,5.92
2023-04-08T01:55:58.501Z,5.83
2023-04-08T01:58:37.388Z,5.84
2023-04-08T02:01:11.180Z,5.84
2023-04-08T02:03:38.716Z,5.82
2023-04-08T02:06:07.821Z,5.87
2023-04-08T02:08:36.328Z,5.91
2023-04-08T02:11:03.970Z,5.94
2023-04-08T02:13:31.661Z,5.95
2023-04-08T02:16:12.414Z,5.93
2023-04-08T02:18:46.000Z,5.95
2023-04-08T02:21:15.633Z,6.02
2023-04-08T02:23:49.535Z,6.01
2023-04-08T02:26:17.260Z,5.90
2023-04-08T02:28:46.114Z,5.86
2023-04-08T02:31:19.511Z,5.87
2023-04-08T02:33:46.627Z,5.77
2023-04-08T02:36:14.451Z,5.73
2023-04-08T02:38:51.264Z,5.70
2023-04-08T02:41:21.343Z,5.69
2023-04-08T02:43:55.470Z,5.68
2023-04-08T02:46:22.138Z,5.67
2023-04-08T02:48:49.034Z,5.67
2023-04-08T02:51:15.926Z,5.60
2023-04-08T02:53:45.096Z,5.54
2023-04-08T02:56:12.257Z,5.46
2023-04-08T02:58:38.711Z,5.45
2023-04-08T03:01:05.621Z,5.41
2023-04-08T03:03:32.289Z,5.36
2023-04-08T03:06:03.646Z,5.37
2023-04-08T03:08:32.951Z,5.34
2023-04-08T03:11:01.981Z,5.32
2023-04-08T03:13:29.808Z,5.35
2023-04-08T03:15:56.261Z,5.34
2023-04-08T03:18:25.468Z,5.34
2023-04-08T03:20:52.700Z,5.30
2023-04-08T03:23:19.123Z,5.23
2023-04-08T03:25:45.739Z,5.17
2023-04-08T03:28:12.248Z,5.08
2023-04-08T03:30:43.643Z,5.11
2023-04-08T03:33:14.920Z,5.14
2023-04-08T03:35:44.279Z,5.13
2023-04-08T03:38:13.312Z,5.00
2023-04-08T03:40:44.536Z,4.98
2023-04-08T03:43:11.823Z,4.91
2023-04-08T03:45:38.954Z,4.81
2023-04-08T03:48:05.887Z,4.78
2023-04-08T03:50:32.431Z,4.80
2023-04-08T03:52:58.880Z,4.70
2023-04-08T03:55:25.444Z,4.64
2023-04-08T03:57:51.910Z,4.56
2023-04-08T04:00:20.806Z,4.51
2023-04-08T04:02:47.464Z,4.47
2023-04-08T04:05:14.103Z,4.28
2023-04-08T04:07:42.812Z,4.16
2023-04-08T04:10:11.982Z,4.15
2023-04-08T04:12:38.509Z,4.14
2023-04-08T04:15:05.450Z,4.06
2023-04-08T04:17:34.524Z,4.05
2023-04-08T04:20:04.287Z,4.07
2023-04-08T04:22:30.754Z,4.08
2023-04-08T04:24:59.542Z,4.05
2023-04-08T04:27:28.090Z,3.98
2023-04-08T04:29:54.511Z,3.99
2023-04-08T04:32:23.386Z,3.89
2023-04-08T04:34:52.134Z,3.90
2023-04-08T04:37:20.934Z,3.93
2023-04-08T04:39:49.668Z,3.84
2023-04-08T04:42:18.390Z,3.78
2023-04-08T04:44:44.859Z,3.63
2023-04-08T04:47:14.148Z,3.60
2023-04-08T04:49:43.236Z,3.71
2023-04-08T04:52:09.745Z,3.69
2023-04-08T04:54:36.702Z,3.60
2023-04-08T04:57:03.772Z,3.51
2023-04-08T04:59:32.767Z,3.48
2023-04-08T05:01:59.300Z,3.55
2023-04-08T05:04:28.238Z,3.45
2023-04-08T05:06:55.027Z,3.31
2023-04-08T05:09:21.510Z,3.29
2023-04-08T05:11:47.986Z,3.26
2023-04-08T05:14:14.449Z,3.36
2023-04-08T05:16:43.192Z,3.25
2023-04-08T05:19:12.022Z,3.26
2023-04-08T05:21:41.058Z,3.25
2023-04-08T05:24:09.800Z,3.16
2023-04-08T05:26:41.817Z,3.17
2023-04-08T05:29:10.568Z,3.21
2023-04-08T05:31:37.069Z,3.23
2023-04-08T05:34:03.596Z,3.32
2023-04-08T05:36:32.394Z,3.31
2023-04-08T05:39:03.734Z,3.35
2023-04-08T05:41:30.253Z,3.29
2023-04-08T05:43:56.860Z,3.31
2023-04-08T05:46:23.406Z,3.29
2023-04-08T05:48:50.740Z,3.29
2023-04-08T05:51:17.979Z,3.33
2023-04-08T05:53:47.523Z,3.51
2023-04-08T05:56:14.025Z,3.87
2023-04-08T05:58:45.742Z,4.25
2023-04-08T06:01:14.580Z,4.45
2023-04-08T06:03:46.216Z,4.40
2023-04-08T06:06:15.065Z,4.69
2023-04-08T06:08:41.556Z,5.31
2023-04-08T06:11:10.601Z,6.01
2023-04-08T06:13:38.358Z,7.03
2023-04-08T06:16:17.167Z,7.55
2023-04-08T06:18:49.473Z,7.86
2023-04-08T06:21:16.648Z,8.17
2023-04-08T06:23:43.112Z,8.24
2023-04-08T06:26:09.662Z,7.90
2023-04-08T06:28:36.389Z,8.21
2023-04-08T06:31:02.870Z,8.02
2023-04-08T06:33:31.763Z,7.21
2023-04-08T06:36:05.827Z,6.90
2023-04-08T06:38:32.869Z,7.35
2023-04-08T06:41:09.154Z,7.63
2023-04-08T06:43:37.935Z,8.36
2023-04-08T06:46:04.741Z,8.44
2023-04-08T06:48:31.366Z,8.15
2023-04-08T06:51:01.217Z,7.95
2023-04-08T06:53:31.226Z,7.59
2023-04-08T06:56:00.416Z,7.80
2023-04-08T06:58:27.382Z,8.39
2023-04-08T07:00:59.237Z,8.20
2023-04-08T07:03:26.544Z,7.84
2023-04-08T07:05:55.920Z,7.95
2023-04-08T07:08:22.393Z,8.11
2023-04-08T07:10:51.873Z,8.16
2023-04-08T07:13:21.306Z,8.02
2023-04-08T07:15:47.798Z,8.03
2023-04-08T07:18:14.302Z,8.32
2023-04-08T07:20:41.907Z,8.82
2023-04-08T07:23:10.805Z,9.58
2023-04-08T07:25:37.394Z,9.52
2023-04-08T07:28:04.006Z,10.00
2023-04-08T07:30:30.548Z,10.41
2023-04-08T07:33:00.945Z,10.41
2023-04-08T07:35:32.751Z,9.87
2023-04-08T07:37:59.321Z,10.74
2023-04-08T07:40:26.163Z,10.85
2023-04-08T07:42:55.002Z,10.78
2023-04-08T07:45:26.287Z,11.01
2023-04-08T07:47:55.603Z,12.49
2023-04-08T07:50:22.620Z,13.22
2023-04-08T07:52:53.289Z,12.52
2023-04-08T07:55:22.311Z,12.13
2023-04-08T07:57:51.475Z,12.36
2023-04-08T08:00:21.666Z,12.30
2023-04-08T08:02:52.919Z,13.28
2023-04-08T08:05:19.561Z,14.15
2023-04-08T08:07:48.376Z,13.53
2023-04-08T08:10:14.875Z,13.48
2023-04-08T08:12:41.934Z,14.19
2023-04-08T08:15:09.171Z,13.30
2023-04-08T08:17:38.195Z,13.64
2023-04-08T08:20:07.862Z,13.34
2023-04-08T08:22:50.580Z,13.48
2023-04-08T08:25:24.745Z,14.02
2023-04-08T08:27:52.391Z,13.82
2023-04-08T08:30:21.081Z,14.38
2023-04-08T08:32:51.997Z,14.43
2023-04-08T08:35:20.906Z,14.56
2023-04-08T08:37:47.410Z,14.79
2023-04-08T08:40:14.880Z,14.66
2023-04-08T08:42:41.501Z,15.07
2023-04-08T08:45:08.576Z,14.91
2023-04-08T08:47:35.419Z,14.81
2023-04-08T08:50:05.064Z,14.49
2023-04-08T08:52:31.602Z,14.21
2023-04-08T08:54:59.557Z,14.64
2023-04-08T08:57:26.707Z,14.87
2023-04-08T08:59:53.312Z,14.35
2023-04-08T09:02:27.770Z,13.95
2023-04-08T09:05:05.319Z,13.88
2023-04-08T09:07:40.345Z,14.05
2023-04-08T09:10:10.552Z,14.23
2023-04-08T09:12:54.007Z,13.97
2023-04-08T09:15:23.082Z,13.55
2023-04-08T09:17:49.636Z,13.50
2023-04-08T09:20:18.414Z,13.40
2023-04-08T09:22:53.931Z,12.90
2023-04-08T09:25:33.772Z,12.85
2023-04-08T09:28:02.129Z,12.95
2023-04-08T09:30:32.605Z,12.96
2023-04-08T09:33:01.557Z,13.19
2023-04-08T09:35:30.894Z,12.98
2023-04-08T09:37:57.356Z,12.97
2023-04-08T09:40:26.446Z,13.19
2023-04-08T09:42:57.299Z,13.57
2023-04-08T09:45:25.686Z,13.38
2023-04-08T09:48:13.463Z,13.56
2023-04-08T09:50:47.489Z,13.68
2023-04-08T09:53:26.315Z,13.60
2023-04-08T09:55:57.133Z,13.60
2023-04-08T09:58:30.953Z,13.82
2023-04-08T10:00:58.490Z,13.91
2023-04-08T10:03:25.063Z,14.04
2023-04-08T10:05:53.936Z,13.97
2023-04-08T10:08:23.254Z,14.04
2023-04-08T10:10:50.502Z,13.93
2023-04-08T10:13:19.587Z,14.01
2023-04-08T10:15:47.717Z,13.87
2023-04-08T10:18:14.706Z,13.82
2023-04-08T10:20:44.924Z,13.86
2023-04-08T10:23:18.600Z,13.89
2023-04-08T10:25:48.741Z,13.83
2023-04-08T10:28:18.038Z,13.48
2023-04-08T10:30:48.067Z,13.44
2023-04-08T10:33:30.090Z,13.67
2023-04-08T10:36:03.271Z,13.62
2023-04-08T10:38:32.319Z,13.65
2023-04-08T10:40:58.810Z,14.11
2023-04-08T10:43:27.713Z,14.15
2023-04-08T10:45:54.246Z,14.00
2023-04-08T10:48:24.516Z,13.88
2023-04-08T10:51:06.194Z,13.85
2023-04-08T10:53:35.506Z,13.79
2023-04-08T10:56:06.246Z,13.77
2023-04-08T10:58:33.793Z,13.75
2023-04-08T11:01:09.446Z,14.04
2023-04-08T11:03:49.720Z,14.16
2023-04-08T11:06:19.612Z,14.56
2023-04-08T11:08:49.063Z,15.10
2023-04-08T11:11:17.875Z,14.90
2023-04-08T11:13:53.430Z,14.77
2023-04-08T11:16:26.064Z,14.75
2023-04-08T11:18:55.605Z,14.92
2023-04-08T11:21:29.558Z,14.71
2023-04-08T11:23:58.689Z,14.33
2023-04-08T11:26:25.770Z,14.60
2023-04-08T11:28:54.579Z,14.37
2023-04-08T11:31:24.532Z,14.51
2023-04-08T11:33:56.762Z,14.56
2023-04-08T11:36:29.091Z,14.43
2023-04-08T11:38:58.019Z,14.33
2023-04-08T11:41:24.584Z,14.17
2023-04-08T11:43:53.089Z,14.07
2023-04-08T11:46:21.918Z,14.11
2023-04-08T11:49:08.610Z,14.55
2023-04-08T11:51:36.210Z,14.50
2023-04-08T11:54:08.602Z,14.46
2023-04-08T11:56:47.190Z,14.28
2023-04-08T11:59:13.794Z,14.43
2023-04-08T12:01:42.603Z,14.42
2023-04-08T12:04:11.254Z,14.79
2023-04-08T12:06:38.172Z,14.83
2023-04-08T12:09:08.036Z,15.11
2023-04-08T12:11:36.772Z,14.86
2023-04-08T12:14:07.093Z,14.65
2023-04-08T12:16:36.297Z,14.39
2023-04-08T12:19:05.293Z,14.39
2023-04-08T12:21:34.040Z,14.57
2023-04-08T12:24:00.990Z,14.93
2023-04-08T12:26:27.502Z,14.89
2023-04-08T12:28:56.555Z,14.51
2023-04-08T12:31:27.320Z,14.56
2023-04-08T12:33:54.236Z,14.58
2023-04-08T12:36:23.086Z,14.40
2023-04-08T12:38:49.842Z,14.35
2023-04-08T12:41:16.568Z,14.27
2023-04-08T12:43:45.658Z,14.32
2023-04-08T12:46:14.697Z,14.15
2023-04-08T12:48:41.155Z,14.06
2023-04-08T12:51:12.675Z,13.94
2023-04-08T12:53:41.481Z,13.85
2023-04-08T12:56:08.087Z,13.85
2023-04-08T12:58:34.809Z,13.82
2023-04-08T13:01:01.354Z,14.01
2023-04-08T13:03:30.416Z,13.99
2023-04-08T13:06:01.826Z,13.94
2023-04-08T13:08:30.640Z,13.89
2023-04-08T13:10:57.115Z,13.96
2023-04-08T13:13:24.084Z,13.98
2023-04-08T13:15:53.014Z,14.16
2023-04-08T13:18:19.546Z,14.34
2023-04-08T13:20:50.724Z,14.27
2023-04-08T13:23:21.167Z,14.47
2023-04-08T13:25:50.117Z,14.76
2023-04-08T13:28:16.764Z,14.59
2023-04-08T13:30:43.225Z,14.48
2023-04-08T13:33:11.873Z,14.67
2023-04-08T13:35:38.372Z,14.68
2023-04-08T13:38:04.922Z,14.39
2023-04-08T13:40:36.299Z,14.23
2023-04-08T13:43:08.553Z,14.17
2023-04-08T13:45:37.802Z,14.21
2023-04-08T13:48:04.887Z,13.99
2023-04-08T13:50:31.472Z,13.90
2023-04-08T13:52:58.259Z,13.93
2023-04-08T13:55:27.183Z,14.22
2023-04-08T13:57:58.410Z,14.25
2023-04-08T14:00:25.555Z,14.35
2023-04-08T14:02:56.730Z,14.40
2023-04-08T14:05:23.229Z,14.19
2023-04-08T14:07:51.823Z,14.14
2023-04-08T14:10:18.344Z,14.21
2023-04-08T14:12:46.559Z,14.22
2023-04-08T14:15:15.639Z,14.06
2023-04-08T14:17:44.276Z,14.30
2023-04-08T14:20:13.566Z,14.42
2023-04-08T14:22:40.709Z,14.55
2023-04-08T14:25:07.501Z,14.39
2023-04-08T14:27:34.135Z,14.08
2023-04-08T14:30:00.733Z,14.15
2023-04-08T14:32:27.349Z,14.14
2023-04-08T14:34:54.501Z,13.99
2023-04-08T14:37:20.947Z,13.78
2023-04-08T14:39:47.454Z,13.77
2023-04-08T14:42:16.557Z,13.67
2023-04-08T14:44:45.377Z,13.60
2023-04-08T14:47:12.171Z,13.57
2023-04-08T14:49:43.148Z,13.49
2023-04-08T14:52:12.170Z,13.65
2023-04-08T14:54:41.367Z,13.65
2023-04-08T14:57:08.256Z,13.59
2023-04-08T14:59:37.109Z,13.48
2023-04-08T15:02:03.677Z,13.56
2023-04-08T15:04:35.370Z,13.64
2023-04-08T15:07:02.874Z,13.64
2023-04-08T15:09:31.826Z,13.78
2023-04-08T15:12:01.214Z,13.78
2023-04-08T15:14:30.366Z,13.58
2023-04-08T15:16:56.883Z,13.65
2023-04-08T15:19:23.698Z,13.58
2023-04-08T15:21:50.268Z,13.53
2023-04-08T15:24:19.499Z,13.58
2023-04-08T15:26:46.018Z,13.60
2023-04-08T15:29:13.091Z,13.71
2023-04-08T15:31:42.587Z,13.79
2023-04-08T15:34:09.083Z,13.80
2023-04-08T15:36:37.902Z,13.71
2023-04-08T15:39:04.387Z,13.69
2023-04-08T15:41:33.008Z,13.70
2023-04-08T15:44:04.292Z,13.58
2023-04-08T15:46:30.983Z,13.62
2023-04-08T15:48:58.743Z,13.72
2023-04-08T15:51:28.655Z,13.77
2023-04-08T15:53:57.491Z,13.66
2023-04-08T15:56:28.294Z,13.62
2023-04-08T15:58:57.406Z,13.53
2023-04-08T16:01:26.243Z,13.54
2023-04-08T16:03:52.862Z,13.64
2023-04-08T16:06:19.418Z,13.56
2023-04-08T16:08:47.137Z,13.58
2023-04-08T16:11:13.731Z,13.60
2023-04-08T16:13:42.320Z,13.58
2023-04-08T16:16:09.047Z,13.53
2023-04-08T16:18:38.996Z,13.51
2023-04-08T16:21:07.998Z,13.48
2023-04-08T16:23:38.082Z,13.42
2023-04-08T16:26:07.859Z,13.44
2023-04-08T16:28:38.921Z,13.40
2023-04-08T16:31:06.403Z,13.37
2023-04-08T16:33:35.315Z,13.39
2023-04-08T16:36:02.751Z,13.35
2023-04-08T16:38:33.052Z,13.41
2023-04-08T16:41:00.312Z,13.35
2023-04-08T16:43:27.252Z,13.23
2023-04-08T16:45:54.096Z,13.21
2023-04-08T16:48:23.385Z,13.26
2023-04-08T16:50:50.221Z,13.25
2023-04-08T16:53:19.015Z,13.35
2023-04-08T16:55:47.770Z,13.34
2023-04-08T16:58:14.268Z,13.33
2023-04-08T17:00:40.817Z,13.33
2023-04-08T17:03:07.528Z,13.31
2023-04-08T17:05:39.104Z,13.35
2023-04-08T17:08:05.813Z,13.32
2023-04-08T17:10:34.395Z,13.26
2023-04-08T17:13:06.780Z,13.18
2023-04-08T17:15:35.989Z,13.20
2023-04-08T17:18:02.650Z,13.15
2023-04-08T17:20:29.184Z,13.11
2023-04-08T17:22:56.257Z,13.07
2023-04-08T17:25:25.298Z,13.01
2023-04-08T17:27:54.196Z,12.99
2023-04-08T17:30:21.044Z,12.93
2023-04-08T17:32:48.215Z,12.92
2023-04-08T17:35:17.272Z,12.88
2023-04-08T17:37:46.294Z,12.87
2023-04-08T17:40:12.861Z,12.79
2023-04-08T17:42:41.979Z,12.81
2023-04-08T17:45:11.903Z,12.84
2023-04-08T17:47:45.469Z,12.82
2023-04-08T17:50:12.353Z,12.71
2023-04-08T17:52:38.894Z,12.69
2023-04-08T17:55:08.145Z,12.72
2023-04-08T17:57:34.643Z,12.79
2023-04-08T18:00:01.668Z,12.84
2023-04-08T18:02:31.247Z,12.86
2023-04-08T18:04:59.473Z,12.81
2023-04-08T18:07:26.299Z,12.75
2023-04-08T18:09:53.022Z,12.70
2023-04-08T18:12:22.164Z,12.66
2023-04-08T18:14:48.611Z,12.57
2023-04-08T18:17:15.174Z,12.59
2023-04-08T18:19:44.205Z,12.58
2023-04-08T18:22:15.583Z,12.51
2023-04-08T18:24:42.090Z,12.47
2023-04-08T18:27:13.193Z,12.39
2023-04-08T18:29:39.712Z,12.25
2023-04-08T18:32:06.309Z,12.12
2023-04-08T18:34:38.963Z,12.08
2023-04-08T18:37:07.974Z,12.08
2023-04-08T18:39:34.413Z,12.09
2023-04-08T18:42:01.536Z,12.14
2023-04-08T18:44:28.528Z,12.05
2023-04-08T18:46:57.570Z,12.00
2023-04-08T18:49:24.119Z,11.97
2023-04-08T18:52:01.998Z,11.92
2023-04-08T18:54:32.334Z,11.87
2023-04-08T18:57:01.136Z,11.79
2023-04-08T18:59:30.551Z,11.69
2023-04-08T19:01:57.267Z,11.61
2023-04-08T19:04:24.436Z,11.57
2023-04-08T19:06:51.439Z,11.45
2023-04-08T19:09:21.222Z,11.38
2023-04-08T19:11:48.401Z,11.28
2023-04-08T19:14:15.484Z,11.21
2023-04-08T19:16:44.183Z,11.10
2023-04-08T19:19:13.008Z,11.01
2023-04-08T19:21:42.256Z,10.95
2023-04-08T19:24:13.659Z,10.88
2023-04-08T19:26:40.488Z,10.73
2023-04-08T19:29:07.006Z,10.60
2023-04-08T19:31:33.549Z,10.53
2023-04-08T19:34:00.046Z,10.48
2023-04-08T19:36:29.054Z,10.41
2023-04-08T19:38:57.676Z,10.35
2023-04-08T19:41:24.241Z,10.28
2023-04-08T19:43:56.606Z,10.21
2023-04-08T19:46:23.073Z,10.12
2023-04-08T19:48:56.160Z,10.12
2023-04-08T19:51:26.134Z,10.00
2023-04-08T19:53:53.261Z,9.89
2023-04-08T19:56:19.961Z,9.79
2023-04-08T19:58:46.832Z,9.79
2023-04-08T20:01:14.215Z,9.72
2023-04-08T20:03:42.070Z,9.70
2023-04-08T20:06:09.025Z,9.62
2023-04-08T20:08:35.915Z,9.53
2023-04-08T20:11:07.081Z,9.49
2023-04-08T20:13:36.101Z,9.42
2023-04-08T20:16:05.391Z,9.38
2023-04-08T20:18:32.794Z,9.29
2023-04-08T20:21:00.309Z,9.27
2023-04-08T20:23:27.314Z,9.17
2023-04-08T20:25:53.757Z,9.12
2023-04-08T20:28:23.681Z,9.10
2023-04-08T20:30:50.173Z,9.12
2023-04-08T20:33:16.667Z,9.01
2023-04-08T20:35:50.378Z,8.94
2023-04-08T20:38:19.656Z,8.90
2023-04-08T20:40:46.253Z,8.91
2023-04-08T20:43:12.746Z,8.90
2023-04-08T20:45:39.227Z,8.87
2023-04-08T20:48:07.353Z,8.83
2023-04-08T20:50:36.506Z,8.80
2023-04-08T20:53:03.120Z,8.76
2023-04-08T20:55:29.600Z,8.73
2023-04-08T20:57:56.286Z,8.68
2023-04-08T21:00:22.819Z,8.63
2023-04-08T21:02:52.758Z,8.62
2023-04-08T21:05:22.267Z,8.55
2023-04-08T21:07:48.725Z,8.53
2023-04-08T21:10:15.825Z,8.48
2023-04-08T21:12:42.381Z,8.45
2023-04-08T21:15:11.510Z,8.42
2023-04-08T21:17:38.056Z,8.43
2023-04-08T21:20:07.503Z,8.41
2023-04-08T21:22:33.943Z,8.32
2023-04-08T21:25:00.617Z,8.25
2023-04-08T21:27:29.073Z,8.16
2023-04-08T21:29:55.558Z,8.10
2023-04-08T21:32:24.674Z,8.07
2023-04-08T21:34:54.323Z,7.89
2023-04-08T21:37:21.371Z,7.68
2023-04-08T21:39:53.767Z,7.64
2023-04-08T21:42:22.882Z,7.68
2023-04-08T21:44:52.016Z,7.64
2023-04-08T21:47:18.673Z,7.42
2023-04-08T21:49:48.488Z,7.40
2023-04-08T21:52:22.375Z,7.50
2023-04-08T21:54:52.752Z,7.64
2023-04-08T21:57:19.303Z,7.78
2023-04-08T21:59:45.824Z,7.90
2023-04-08T22:02:12.505Z,7.98
2023-04-08T22:04:44.709Z,8.05
2023-04-08T22:07:13.591Z,8.13
2023-04-08T22:09:43.443Z,8.29
2023-04-08T22:12:11.155Z,8.45
2023-04-08T22:14:40.280Z,8.56
2023-04-08T22:17:09.296Z,8.65
2023-04-08T22:19:38.454Z,8.75
2023-04-08T22:22:07.252Z,8.82
2023-04-08T22:24:33.830Z,8.89
2023-04-08T22:27:03.358Z,8.93
2023-04-08T22:29:29.835Z,8.94
2023-04-08T22:32:01.318Z,8.97
2023-04-08T22:34:30.260Z,8.95
2023-04-08T22:36:58.966Z,8.92
2023-04-08T22:39:27.899Z,8.89
2023-04-08T22:41:54.427Z,8.91
2023-04-08T22:44:23.158Z,8.92
2023-04-08T22:46:52.020Z,8.85
2023-04-08T22:49:20.719Z,8.88
2023-04-08T22:51:49.847Z,8.84
2023-04-08T22:54:18.511Z,8.87
2023-04-08T22:56:47.331Z,8.89
2023-04-08T22:59:13.792Z,8.89
2023-04-08T23:01:44.048Z,8.88
2023-04-08T23:04:11.101Z,8.92
2023-04-08T23:06:40.361Z,8.93
2023-04-08T23:09:14.261Z,8.93
2023-04-08T23:11:40.753Z,8.96
2023-04-08T23:14:11.936Z,8.93
2023-04-08T23:16:38.435Z,8.91
2023-04-08T23:19:07.503Z,8.92
2023-04-08T23:21:36.490Z,8.92
2023-04-08T23:24:05.467Z,8.94
2023-04-08T23:26:32.077Z,8.95
2023-04-08T23:28:58.518Z,8.97
2023-04-08T23:31:25.037Z,8.94
2023-04-08T23:33:51.498Z,8.92
2023-04-08T23:36:18.020Z,8.95
2023-04-08T23:38:44.448Z,8.92
2023-04-08T23:41:10.970Z,8.93
2023-04-08T23:43:42.405Z,8.91
2023-04-08T23:46:11.280Z,8.90
2023-04-08T23:48:40.255Z,8.86
2023-04-08T23:51:06.858Z,8.86
2023-04-08T23:53:33.373Z,8.90
2023-04-08T23:56:07.068Z,8.94
2023-04-08T23:58:33.824Z,8.96
